Time;durP1;ratioP1;P1;durP2;ratioP2;P2;SDS_P1;SDS_P2;PMS_P1;PMS_P2;Temp;Humidity;BMP_temperature;BMP_pressure;BME280_temperature;BME280_humidity;BME280_pressure;Samples;Min_cycle;Max_cycle;Signal;HPM_P1;HPM_P2
2024/04/21 00:01:30;;;;;;;1.38;0.70;;;;;;;;;;5394045;26;20008;-63
2024/04/21 00:03:56;;;;;;;4.60;0.82;;;;;;;;;;5382566;26;20023;-63
2024/04/21 00:06:26;;;;;;;2.85;0.60;;;;;;;;;;5361564;26;20001;-63
2024/04/21 00:08:51;;;;;;;0.17;0.17;;;;;;;;;;5355552;26;20015;-63
2024/04/21 00:11:20;;;;;;;5.00;1.00;;;;;;;;;;5350100;26;20013;-63
2024/04/21 00:13:46;;;;;;;1.98;0.55;;;;;;;;;;5355191;26;20019;-64
2024/04/21 00:16:14;;;;;;;3.22;0.80;;;;;;;;;;5334232;26;19997;-65
2024/04/21 00:18:42;;;;;;;;;;;;;;;;;;5346610;26;20037;-65
2024/04/21 00:21:11;;;;;;;2.05;0.60;;;;;;;;;;5350385;26;19935;-63
2024/04/21 00:23:38;;;;;;;;;;;;;;;;;;5340905;26;20114;-63
2024/04/21 00:26:07;;;;;;;0.93;0.40;;;;;;;;;;5360217;26;20131;-65
2024/04/21 00:28:32;;;;;;;6.05;0.90;;;;;;;;;;5353658;26;20004;-62
2024/04/21 00:31:01;;;;;;;7.00;0.75;;;;;;;;;;5345647;26;20027;-63
2024/04/21 00:33:26;;;;;;;3.72;0.60;;;;;;;;;;5358324;26;20004;-63
2024/04/21 00:35:57;;;;;;;9.18;0.90;;;;;;;;;;5347424;26;20134;-65
2024/04/21 00:38:25;;;;;;;5.28;0.52;;;;;;;;;;5364896;26;20107;-63
2024/04/21 00:40:54;;;;;;;3.63;0.65;;;;;;;;;;5372867;26;20000;-63
2024/04/21 00:43:19;;;;;;;4.97;0.60;;;;;;;;;;5389334;26;20015;-67
2024/04/21 00:45:48;;;;;;;1.17;0.50;;;;;;;;;;5365200;26;20492;-64
2024/04/21 00:48:15;;;;;;;3.28;0.50;;;;;;;;;;5345820;26;20015;-67
2024/04/21 00:50:47;;;;;;;3.22;0.45;;;;;;;;;;5356966;26;21240;-63
2024/04/21 00:53:18;;;;;;;4.65;0.70;;;;;;;;;;5348139;26;20009;-64
2024/04/21 00:55:46;;;;;;;0.88;0.55;;;;;;;;;;5352907;26;20028;-65
2024/04/21 00:58:14;;;;;;;4.47;0.63;;;;;;;;;;5358541;26;20019;-65
2024/04/21 01:00:43;;;;;;;4.70;0.68;;;;;;;;;;5347386;26;20008;-63
2024/04/21 01:03:09;;;;;;;2.90;0.60;;;;;;;;;;5359524;26;20135;-63
2024/04/21 01:05:37;;;;;;;0.32;0.30;;;;;;;;;;5345332;26;20008;-64
2024/04/21 01:08:04;;;;;;;5.97;0.57;;;;;;;;;;5337272;26;20000;-64
2024/04/21 01:10:35;;;;;;;2.42;0.60;;;;;;;;;;5346923;26;20049;-64
2024/04/21 01:13:08;;;;;;;1.48;0.50;;;;;;;;;;5355434;26;20012;-63
2024/04/21 01:15:36;;;;;;;5.85;0.50;;;;;;;;;;5339350;26;20016;-64
2024/04/21 01:18:04;;;;;;;6.28;0.73;;;;;;;;;;5352004;26;20001;-64
2024/04/21 01:20:34;;;;;;;4.95;0.77;;;;;;;;;;5325552;26;20037;-64
2024/04/21 01:23:02;;;;;;;2.78;0.52;;;;;;;;;;5344575;26;19996;-64
2024/04/21 01:25:30;;;;;;;;;;;;;;;;;;5346652;26;20001;-65
2024/04/21 01:27:56;;;;;;;3.38;0.60;;;;;;;;;;5353688;26;19983;-64
2024/04/21 01:30:24;;;;;;;4.38;0.88;;;;;;;;;;5353481;26;20016;-64
2024/04/21 01:32:50;;;;;;;3.22;0.73;;;;;;;;;;5357905;26;20084;-64
2024/04/21 01:35:18;;;;;;;5.82;0.70;;;;;;;;;;5364513;26;20015;-64
2024/04/21 01:37:44;;;;;;;4.95;0.70;;;;;;;;;;5375578;26;20011;-65
2024/04/21 01:40:19;;;;;;;3.88;0.57;;;;;;;;;;5382212;26;20000;-63
2024/04/21 01:42:44;;;;;;;2.78;0.40;;;;;;;;;;5385762;26;20000;-64
2024/04/21 01:45:13;;;;;;;6.40;1.13;;;;;;;;;;5375466;26;20351;-63
2024/04/21 01:47:38;;;;;;;2.78;1.10;;;;;;;;;;5353168;26;20009;-65
2024/04/21 01:50:10;;;;;;;2.33;0.50;;;;;;;;;;5359939;26;20020;-64
2024/04/21 01:52:35;;;;;;;1.05;0.50;;;;;;;;;;5354033;26;20126;-64
2024/04/21 01:55:04;;;;;;;3.35;0.52;;;;;;;;;;5351614;26;20016;-65
2024/04/21 01:57:32;;;;;;;4.43;0.63;;;;;;;;;;5380314;26;20008;-64
2024/04/21 02:00:00;;;;;;;8.98;0.95;;;;;;;;;;5393686;26;20015;-64
2024/04/21 02:02:26;;;;;;;2.80;0.60;;;;;;;;;;5371835;26;20021;-64
2024/04/21 02:04:54;;;;;;;11.23;0.98;;;;;;;;;;5374811;26;20014;-64
2024/04/21 02:07:20;;;;;;;3.17;0.47;;;;;;;;;;5369115;26;20008;-63
2024/04/21 02:09:48;;;;;;;8.10;0.88;;;;;;;;;;5381102;26;20010;-64
2024/04/21 02:12:16;;;;;;;2.95;0.77;;;;;;;;;;5379455;26;20025;-63
2024/04/21 02:14:44;;;;;;;5.43;0.80;;;;;;;;;;5380981;26;20132;-64
2024/04/21 02:17:13;;;;;;;6.03;0.93;;;;;;;;;;5378450;26;20015;-65
2024/04/21 02:19:38;;;;;;;2.65;0.63;;;;;;;;;;5359425;26;20136;-65
2024/04/21 02:22:07;;;;;;;5.22;0.93;;;;;;;;;;5364147;26;20015;-64
2024/04/21 02:24:39;;;;;;;2.05;0.50;;;;;;;;;;5357340;26;20007;-64
2024/04/21 02:27:07;;;;;;;3.05;0.52;;;;;;;;;;5358620;26;20000;-64
2024/04/21 02:29:33;;;;;;;4.75;0.70;;;;;;;;;;5356747;26;20020;-65
2024/04/21 02:32:04;;;;;;;5.00;0.63;;;;;;;;;;5345024;26;20005;-64
2024/04/21 02:34:30;;;;;;;5.10;0.82;;;;;;;;;;5352208;26;20008;-65
2024/04/21 02:36:58;;;;;;;11.30;1.35;;;;;;;;;;5340540;26;20016;-63
2024/04/21 02:39:24;;;;;;;11.40;1.27;;;;;;;;;;5333460;26;20048;-65
2024/04/21 02:41:53;;;;;;;7.63;0.98;;;;;;;;;;5350827;26;20008;-64
2024/04/21 02:44:18;;;;;;;2.50;0.80;;;;;;;;;;5343450;26;20023;-64
2024/04/21 02:46:47;;;;;;;4.68;0.90;;;;;;;;;;5364608;26;20008;-62
2024/04/21 02:49:15;;;;;;;5.30;0.75;;;;;;;;;;5384746;26;20072;-65
2024/04/21 02:51:44;;;;;;;11.10;0.82;;;;;;;;;;5378103;26;20040;-63
2024/04/21 02:54:10;;;;;;;6.22;0.80;;;;;;;;;;5350765;26;20000;-64
2024/04/21 02:59:28;;;;;;;2.05;0.40;;;;;;;;;;5282976;27;20016;-65
2024/04/21 03:01:54;;;;;;;4.35;0.60;;;;;;;;;;5266730;26;20076;-63
2024/04/21 03:04:25;;;;;;;6.97;0.82;;;;;;;;;;5288263;26;20005;-63
2024/04/21 03:06:50;;;;;;;0.17;0.17;;;;;;;;;;5327373;26;20448;-64
2024/04/21 03:09:18;;;;;;;5.25;0.98;;;;;;;;;;5320043;26;20005;-64
2024/04/21 03:11:46;;;;;;;4.78;0.75;;;;;;;;;;5313699;26;20029;-63
2024/04/21 03:14:15;;;;;;;2.05;0.38;;;;;;;;;;5325047;26;20037;-65
2024/04/21 03:16:41;;;;;;;7.65;1.50;;;;;;;;;;5321310;26;20110;-63
2024/04/21 03:19:10;;;;;;;6.15;0.77;;;;;;;;;;5331004;26;19996;-63
2024/04/21 03:21:38;;;;;;;1.95;0.55;;;;;;;;;;5329652;26;20011;-65
2024/04/21 03:24:07;;;;;;;9.80;1.15;;;;;;;;;;5312200;26;20285;-65
2024/04/21 03:26:32;;;;;;;4.82;0.98;;;;;;;;;;5324728;26;20076;-65
2024/04/21 03:29:00;;;;;;;2.30;0.68;;;;;;;;;;5321912;26;20647;-63
2024/04/21 03:31:26;;;;;;;13.88;0.90;;;;;;;;;;5328562;26;20020;-65
2024/04/21 03:33:54;;;;;;;4.57;0.68;;;;;;;;;;5307016;26;20005;-65
2024/04/21 03:36:20;;;;;;;9.32;0.82;;;;;;;;;;5324577;26;20074;-63
2024/04/21 03:38:51;;;;;;;8.13;0.60;;;;;;;;;;5327902;26;20016;-65
2024/04/21 03:41:19;;;;;;;1.73;0.52;;;;;;;;;;5322289;26;19997;-63
2024/04/21 03:43:49;;;;;;;6.38;0.90;;;;;;;;;;5312834;26;20016;-64
2024/04/21 03:46:17;;;;;;;3.60;0.63;;;;;;;;;;5318555;26;20159;-65
2024/04/21 03:48:43;;;;;;;1.50;0.50;;;;;;;;;;5321861;26;20079;-64
2024/04/21 03:51:11;;;;;;;4.65;0.70;;;;;;;;;;5322346;26;20017;-63
2024/04/21 03:53:36;;;;;;;1.65;0.50;;;;;;;;;;5312874;26;20574;-65
2024/04/21 03:56:08;;;;;;;1.10;0.40;;;;;;;;;;5320027;26;20024;-65
2024/04/21 03:58:33;;;;;;;0.70;0.43;;;;;;;;;;5319047;26;19997;-64
2024/04/21 04:01:02;;;;;;;5.10;0.60;;;;;;;;;;5319564;26;20001;-67
2024/04/21 04:03:27;;;;;;;6.13;0.70;;;;;;;;;;5318294;26;20004;-65
2024/04/21 04:05:55;;;;;;;2.72;0.47;;;;;;;;;;5316272;26;20477;-65
2024/04/21 04:08:21;;;;;;;1.52;0.50;;;;;;;;;;5336895;26;20449;-65
2024/04/21 04:10:50;;;;;;;6.80;0.70;;;;;;;;;;5325687;26;20005;-65
2024/04/21 04:13:19;;;;;;;1.90;0.40;;;;;;;;;;5311886;26;20009;-65
2024/04/21 04:15:48;;;;;;;6.50;0.77;;;;;;;;;;5316404;26;20079;-64
2024/04/21 04:18:14;;;;;;;0.80;0.40;;;;;;;;;;5340991;26;20008;-64
2024/04/21 04:20:42;;;;;;;1.08;0.43;;;;;;;;;;5322247;26;20009;-65
2024/04/21 04:23:08;;;;;;;2.65;0.52;;;;;;;;;;5327016;26;20023;-64
2024/04/21 04:25:39;;;;;;;1.73;0.40;;;;;;;;;;5317242;26;20016;-65
2024/04/21 04:28:05;;;;;;;0.88;0.43;;;;;;;;;;5319563;26;20011;-64
2024/04/21 04:30:36;;;;;;;2.75;0.70;;;;;;;;;;5328425;26;19997;-64
2024/04/21 04:33:01;;;;;;;1.65;0.47;;;;;;;;;;5323284;26;20045;-64
2024/04/21 04:35:29;;;;;;;1.20;0.50;;;;;;;;;;5321875;26;20001;-63
2024/04/21 04:37:55;;;;;;;2.72;0.40;;;;;;;;;;5316679;26;20433;-66
2024/04/21 04:40:23;;;;;;;1.70;0.60;;;;;;;;;;5325967;26;20024;-64
2024/04/21 04:42:49;;;;;;;1.77;0.60;;;;;;;;;;5322811;26;20060;-65
2024/04/21 04:45:19;;;;;;;3.55;0.52;;;;;;;;;;5291419;26;20020;-64
2024/04/21 04:47:47;;;;;;;0.77;0.40;;;;;;;;;;5283211;27;20010;-64
2024/04/21 04:50:16;;;;;;;0.57;0.38;;;;;;;;;;5287337;26;20041;-64
2024/04/21 04:52:41;;;;;;;1.50;0.30;;;;;;;;;;5296290;26;20006;-65
2024/04/21 04:55:10;;;;;;;4.63;0.73;;;;;;;;;;5310028;26;20028;-67
2024/04/21 04:57:36;;;;;;;1.33;0.50;;;;;;;;;;5320169;26;20096;-65
2024/04/21 05:00:05;;;;;;;1.30;0.50;;;;;;;;;;5324938;26;20021;-66
2024/04/21 05:02:31;;;;;;;1.80;0.60;;;;;;;;;;5325835;26;19997;-64
2024/04/21 05:05:02;;;;;;;1.00;0.38;;;;;;;;;;5331066;26;20012;-66
2024/04/21 05:07:28;;;;;;;2.47;1.02;;;;;;;;;;5320805;26;20020;-63
2024/04/21 05:09:56;;;;;;;0.77;0.47;;;;;;;;;;5319473;26;19997;-64
2024/04/21 05:12:22;;;;;;;2.97;0.45;;;;;;;;;;5322269;26;20015;-64
2024/04/21 05:14:50;;;;;;;2.10;0.40;;;;;;;;;;5318525;26;20359;-65
2024/04/21 05:17:16;;;;;;;1.95;0.40;;;;;;;;;;5324238;26;20112;-65
2024/04/21 05:19:44;;;;;;;1.08;0.40;;;;;;;;;;5320958;26;20020;-65
2024/04/21 05:22:12;;;;;;;1.50;0.40;;;;;;;;;;5324352;26;20028;-63
2024/04/21 05:24:41;;;;;;;0.40;0.40;;;;;;;;;;5313081;26;20027;-64
2024/04/21 05:27:06;;;;;;;1.92;0.63;;;;;;;;;;5322041;26;20011;-64
2024/04/21 05:29:35;;;;;;;2.13;0.65;;;;;;;;;;5322751;26;20009;-64
2024/04/21 05:32:00;;;;;;;0.88;0.50;;;;;;;;;;5316578;26;20057;-65
2024/04/21 05:34:29;;;;;;;0.68;0.52;;;;;;;;;;5342265;26;19997;-66
2024/04/21 05:36:54;;;;;;;0.55;0.35;;;;;;;;;;5322120;26;20009;-66
2024/04/21 05:39:25;;;;;;;0.28;0.20;;;;;;;;;;5337394;26;20012;-68
2024/04/21 05:41:51;;;;;;;0.60;0.30;;;;;;;;;;5313677;26;20116;-64
2024/04/21 05:44:19;;;;;;;0.40;0.40;;;;;;;;;;5323968;26;20024;-65
2024/04/21 05:46:45;;;;;;;0.70;0.50;;;;;;;;;;5325877;26;20005;-64
2024/04/21 05:49:13;;;;;;;0.30;0.30;;;;;;;;;;5321489;26;20005;-67
2024/04/21 05:51:45;;;;;;;1.67;0.75;;;;;;;;;;5318101;26;20451;-66
2024/04/21 05:54:13;;;;;;;2.15;0.57;;;;;;;;;;5319257;26;20044;-64
2024/04/21 05:56:42;;;;;;;3.95;0.82;;;;;;;;;;5325148;26;20255;-64
2024/04/21 05:59:10;;;;;;;2.72;0.95;;;;;;;;;;5322401;26;20029;-66
2024/04/21 06:01:36;;;;;;;2.15;0.70;;;;;;;;;;5323803;26;19997;-64
2024/04/21 06:04:04;;;;;;;3.65;2.00;;;;;;;;;;5320402;26;20001;-64
2024/04/21 06:06:30;;;;;;;1.55;0.80;;;;;;;;;;5312798;26;20471;-65
2024/04/21 06:08:58;;;;;;;0.50;0.43;;;;;;;;;;5331416;26;20012;-64
2024/04/21 06:11:24;;;;;;;1.20;0.38;;;;;;;;;;5324587;26;19997;-64
2024/04/21 06:13:56;;;;;;;0.70;0.30;;;;;;;;;;5319493;26;20011;-68
2024/04/21 06:16:21;;;;;;;2.28;0.50;;;;;;;;;;5324250;26;20001;-64
2024/04/21 06:18:50;;;;;;;0.98;0.40;;;;;;;;;;5325782;26;20005;-64
2024/04/21 06:21:15;;;;;;;0.95;0.40;;;;;;;;;;5332974;26;20004;-65
2024/04/21 06:23:44;;;;;;;0.38;0.30;;;;;;;;;;5315598;26;20023;-66
2024/04/21 06:26:09;;;;;;;2.00;0.60;;;;;;;;;;5313323;26;20048;-66
2024/04/21 06:28:37;;;;;;;1.02;0.55;;;;;;;;;;5334527;26;20503;-65
2024/04/21 06:31:06;;;;;;;3.28;0.55;;;;;;;;;;5326233;26;20001;-65
2024/04/21 06:33:34;;;;;;;2.35;0.70;;;;;;;;;;5330000;26;20013;-65
2024/04/21 06:36:00;;;;;;;1.17;0.30;;;;;;;;;;5322156;26;20441;-68
2024/04/21 06:38:30;;;;;;;1.92;0.77;;;;;;;;;;5329815;26;20045;-66
2024/04/21 06:40:57;;;;;;;3.45;0.80;;;;;;;;;;5322551;26;20020;-64
2024/04/21 06:43:26;;;;;;;13.23;3.50;;;;;;;;;;5318731;26;20019;-63
2024/04/21 06:45:51;;;;;;;1.80;1.27;;;;;;;;;;5315358;26;20010;-64
2024/04/21 06:48:23;;;;;;;5.45;0.60;;;;;;;;;;5323486;26;20025;-64
2024/04/21 06:50:49;;;;;;;1.88;0.47;;;;;;;;;;5331942;26;20424;-63
2024/04/21 06:53:20;;;;;;;3.70;0.70;;;;;;;;;;5319603;26;20025;-66
2024/04/21 06:55:47;;;;;;;0.90;0.45;;;;;;;;;;5318003;26;20151;-65
2024/04/21 06:58:17;;;;;;;8.48;0.80;;;;;;;;;;5323772;26;20016;-63
2024/04/21 07:00:43;;;;;;;2.42;0.60;;;;;;;;;;5325832;26;20037;-62
2024/04/21 07:03:11;;;;;;;0.63;0.40;;;;;;;;;;5322764;26;20064;-65
2024/04/21 07:05:40;;;;;;;;;;;;;;;;;;5319506;26;20083;-64
2024/04/21 07:08:08;;;;;;;0.38;0.38;;;;;;;;;;5333489;26;19926;-65
2024/04/21 07:10:37;;;;;;;8.48;0.80;;;;;;;;;;5322502;26;20038;-66
2024/04/21 07:13:05;;;;;;;2.83;0.60;;;;;;;;;;5332883;26;20001;-65
2024/04/21 07:15:31;;;;;;;2.22;0.70;;;;;;;;;;5316031;26;20009;-66
2024/04/21 07:17:59;;;;;;;0.88;0.38;;;;;;;;;;5313243;26;20000;-64
2024/04/21 07:20:25;;;;;;;4.32;1.02;;;;;;;;;;5324808;26;19997;-66
2024/04/21 07:22:56;;;;;;;4.43;1.70;;;;;;;;;;5331847;26;20083;-66
2024/04/21 07:25:23;;;;;;;8.27;1.73;;;;;;;;;;5300256;26;20009;-64
2024/04/21 07:27:51;;;;;;;4.85;0.80;;;;;;;;;;5318326;26;20015;-64
2024/04/21 07:30:17;;;;;;;5.80;1.00;;;;;;;;;;5323180;26;20067;-65
2024/04/21 07:32:45;;;;;;;4.53;0.57;;;;;;;;;;5322824;26;20016;-64
2024/04/21 07:35:11;;;;;;;;;;;;;;;;;;5316797;26;20016;-64
2024/04/21 07:37:40;;;;;;;5.75;1.15;;;;;;;;;;5321050;26;19933;-64
2024/04/21 07:40:09;;;;;;;2.45;1.10;;;;;;;;;;5314998;26;20424;-64
2024/04/21 07:42:37;;;;;;;0.98;0.45;;;;;;;;;;5325011;26;20028;-63
2024/04/21 07:45:05;;;;;;;3.03;0.70;;;;;;;;;;5308769;26;20037;-63
2024/04/21 07:47:34;;;;;;;4.82;1.05;;;;;;;;;;5322768;26;20013;-64
2024/04/21 07:50:01;;;;;;;3.38;1.33;;;;;;;;;;5330160;26;20108;-64
2024/04/21 07:52:29;;;;;;;4.85;1.58;;;;;;;;;;5322288;26;20020;-63
2024/04/21 07:54:55;;;;;;;6.65;1.63;;;;;;;;;;5307456;26;20012;-62
2024/04/21 07:57:29;;;;;;;3.92;1.30;;;;;;;;;;5331553;26;20000;-66
2024/04/21 07:59:54;;;;;;;10.40;1.73;;;;;;;;;;5317795;26;20409;-65
2024/04/21 08:02:23;;;;;;;7.68;1.90;;;;;;;;;;5327018;26;20080;-66
2024/04/21 08:04:48;;;;;;;6.43;2.33;;;;;;;;;;5316631;26;20013;-65
2024/04/21 08:07:16;;;;;;;7.35;2.30;;;;;;;;;;5323210;26;20024;-64
2024/04/21 08:09:45;;;;;;;7.18;2.50;;;;;;;;;;5316930;26;20005;-67
2024/04/21 08:12:13;;;;;;;7.30;3.22;;;;;;;;;;5322739;26;20015;-64
2024/04/21 08:14:41;;;;;;;10.90;2.05;;;;;;;;;;5322522;26;20020;-63
2024/04/21 08:17:10;;;;;;;6.85;2.45;;;;;;;;;;5321913;26;20008;-65
2024/04/21 08:19:36;;;;;;;9.70;2.53;;;;;;;;;;5326602;26;20004;-64
2024/04/21 08:22:04;;;;;;;6.75;1.73;;;;;;;;;;5319279;26;20005;-63
2024/04/21 08:24:30;;;;;;;12.68;2.33;;;;;;;;;;5318805;26;20037;-64
2024/04/21 08:26:58;;;;;;;8.15;1.52;;;;;;;;;;5324672;26;20012;-64
2024/04/21 08:29:24;;;;;;;6.90;1.58;;;;;;;;;;5322916;26;20045;-63
2024/04/21 08:31:55;;;;;;;11.43;1.73;;;;;;;;;;5317252;26;20001;-63
2024/04/21 08:34:22;;;;;;;11.23;1.40;;;;;;;;;;5312753;26;20009;-63
2024/04/21 08:36:50;;;;;;;7.40;1.50;;;;;;;;;;5321935;26;20044;-64
2024/04/21 08:39:18;;;;;;;5.57;1.40;;;;;;;;;;5320437;26;20001;-63
2024/04/21 08:41:50;;;;;;;8.30;1.35;;;;;;;;;;5314452;26;20001;-63
2024/04/21 08:44:16;;;;;;;4.28;1.13;;;;;;;;;;5247564;26;20010;-63
2024/04/21 08:46:51;;;;;;;4.63;1.30;;;;;;;;;;5283739;26;20427;-64
2024/04/21 08:49:23;;;;;;;5.85;1.30;;;;;;;;;;5291656;26;20017;-63
2024/04/21 08:51:50;;;;;;;7.25;1.83;;;;;;;;;;5291627;26;20001;-63
2024/04/21 08:54:18;;;;;;;3.92;1.20;;;;;;;;;;5250743;26;20029;-63
2024/04/21 08:56:47;;;;;;;3.60;0.98;;;;;;;;;;5320278;26;20015;-63
2024/04/21 08:59:18;;;;;;;5.28;0.90;;;;;;;;;;5329722;26;20033;-63
2024/04/21 09:01:44;;;;;;;7.20;1.40;;;;;;;;;;5320293;26;20001;-64
2024/04/21 09:04:14;;;;;;;7.13;1.23;;;;;;;;;;5228695;26;20027;-63
2024/04/21 09:06:46;;;;;;;9.00;1.70;;;;;;;;;;5307752;26;20068;-63
2024/04/21 09:09:19;;;;;;;7.72;1.20;;;;;;;;;;5317110;26;20005;-63
2024/04/21 09:11:49;;;;;;;4.50;1.17;;;;;;;;;;5316795;26;19997;-63
2024/04/21 09:14:21;;;;;;;7.05;1.15;;;;;;;;;;5250508;26;20006;-64
2024/04/21 09:16:47;;;;;;;4.45;1.15;;;;;;;;;;5327719;26;20008;-63
2024/04/21 09:19:15;;;;;;;6.78;1.27;;;;;;;;;;5325448;26;20016;-64
2024/04/21 09:21:49;;;;;;;3.88;1.10;;;;;;;;;;5322863;26;20009;-64
2024/04/21 09:24:19;;;;;;;5.18;1.40;;;;;;;;;;5285954;26;20017;-63
2024/04/21 09:26:48;;;;;;;3.67;1.30;;;;;;;;;;5307400;26;20002;-63
2024/04/21 09:29:17;;;;;;;3.65;1.13;;;;;;;;;;5334431;26;20013;-64
2024/04/21 09:31:42;;;;;;;3.40;1.40;;;;;;;;;;5314342;26;20182;-64
2024/04/21 09:34:13;;;;;;;2.50;1.25;;;;;;;;;;5281203;26;20022;-65
2024/04/21 09:36:39;;;;;;;3.88;1.65;;;;;;;;;;5347170;26;20001;-64
2024/04/21 09:39:10;;;;;;;9.27;2.47;;;;;;;;;;5330085;26;20000;-64
2024/04/21 09:41:38;;;;;;;6.13;2.15;;;;;;;;;;5322767;26;20106;-65
2024/04/21 09:44:08;;;;;;;4.10;1.38;;;;;;;;;;5306277;26;20001;-64
2024/04/21 09:46:34;;;;;;;4.95;1.63;;;;;;;;;;5337783;26;20013;-64
2024/04/21 09:49:06;;;;;;;5.53;1.48;;;;;;;;;;5324002;26;20106;-64
2024/04/21 09:51:32;;;;;;;6.28;1.80;;;;;;;;;;5327529;26;20028;-63
2024/04/21 09:54:02;;;;;;;5.07;2.20;;;;;;;;;;5290397;26;20004;-64
2024/04/21 09:56:37;;;;;;;6.07;1.58;;;;;;;;;;5316698;26;20082;-64
2024/04/21 09:59:10;;;;;;;9.73;1.92;;;;;;;;;;5329124;26;20058;-63
2024/04/21 10:01:40;;;;;;;4.60;1.63;;;;;;;;;;5321267;26;20024;-64
2024/04/21 10:04:18;;;;;;;5.55;2.17;;;;;;;;;;5306793;26;20119;-64
2024/04/21 10:06:48;;;;;;;4.90;1.50;;;;;;;;;;5326578;26;20005;-63
2024/04/21 10:09:21;;;;;;;4.32;1.55;;;;;;;;;;5334113;26;20041;-64
2024/04/21 10:11:49;;;;;;;3.70;1.33;;;;;;;;;;5315410;26;20043;-63
2024/04/21 10:14:19;;;;;;;3.85;1.70;;;;;;;;;;5314760;26;20007;-64
2024/04/21 10:16:45;;;;;;;2.60;1.30;;;;;;;;;;5356563;26;20013;-63
2024/04/21 10:19:13;;;;;;;4.00;1.38;;;;;;;;;;5322875;26;20033;-64
2024/04/21 10:21:40;;;;;;;3.50;1.48;;;;;;;;;;5327252;26;20005;-64
2024/04/21 10:24:08;;;;;;;2.72;1.08;;;;;;;;;;5304246;26;20076;-64
2024/04/21 10:26:34;;;;;;;3.50;1.25;;;;;;;;;;5324764;26;20016;-65
2024/04/21 10:29:15;;;;;;;2.58;1.35;;;;;;;;;;5323322;26;20019;-63
2024/04/21 10:31:42;;;;;;;2.58;1.20;;;;;;;;;;5319599;26;20472;-64
2024/04/21 10:34:12;;;;;;;3.67;1.40;;;;;;;;;;5316869;26;20001;-63
2024/04/21 10:36:39;;;;;;;8.02;1.95;;;;;;;;;;5325647;26;20019;-64
2024/04/21 10:39:10;;;;;;;4.95;1.65;;;;;;;;;;5333003;26;20087;-64
2024/04/21 10:41:42;;;;;;;4.57;1.42;;;;;;;;;;5322389;26;20100;-63
2024/04/21 10:44:14;;;;;;;8.07;2.65;;;;;;;;;;5310406;26;20044;-64
2024/04/21 10:46:40;;;;;;;4.47;1.92;;;;;;;;;;5350163;26;20001;-64
2024/04/21 10:49:08;;;;;;;3.55;1.63;;;;;;;;;;5336293;26;20044;-64
2024/04/21 10:51:34;;;;;;;3.58;1.63;;;;;;;;;;5323382;26;20025;-64
2024/04/21 10:54:03;;;;;;;7.43;2.70;;;;;;;;;;5317785;26;20067;-64
2024/04/21 10:56:29;;;;;;;5.72;1.67;;;;;;;;;;5322857;26;20790;-63
2024/04/21 10:58:57;;;;;;;2.85;1.33;;;;;;;;;;5314137;26;20005;-63
2024/04/21 11:01:27;;;;;;;3.03;1.50;;;;;;;;;;5329365;26;20110;-66
2024/04/21 11:03:55;;;;;;;2.88;1.40;;;;;;;;;;5308185;26;20009;-65
2024/04/21 11:06:21;;;;;;;1.90;1.20;;;;;;;;;;5339022;26;20073;-64
2024/04/21 11:08:50;;;;;;;4.43;1.40;;;;;;;;;;5325500;26;20008;-65
2024/04/21 11:11:16;;;;;;;3.67;1.50;;;;;;;;;;5323266;26;20085;-63
2024/04/21 11:13:46;;;;;;;3.92;1.55;;;;;;;;;;5337749;26;20016;-64
2024/04/21 11:16:12;;;;;;;2.90;1.55;;;;;;;;;;5319335;26;20028;-63
2024/04/21 11:18:44;;;;;;;3.35;1.58;;;;;;;;;;5324977;26;20085;-64
2024/04/21 11:21:09;;;;;;;3.00;1.55;;;;;;;;;;5323920;26;20036;-63
2024/04/21 11:23:44;;;;;;;7.85;2.20;;;;;;;;;;5323973;26;20001;-64
2024/04/21 11:26:10;;;;;;;5.50;2.00;;;;;;;;;;5307467;26;20000;-66
2024/04/21 11:28:38;;;;;;;6.82;1.85;;;;;;;;;;5322191;26;20029;-63
2024/04/21 11:31:05;;;;;;;4.07;1.67;;;;;;;;;;5317382;26;20023;-64
2024/04/21 11:33:34;;;;;;;3.25;1.65;;;;;;;;;;5324783;26;20001;-64
2024/04/21 11:36:03;;;;;;;;;;;;;;;;;;5226190;26;20737;-66
2024/04/21 11:38:33;;;;;;;3.83;1.50;;;;;;;;;;5323256;26;19962;-64
2024/04/21 11:40:59;;;;;;;2.03;1.40;;;;;;;;;;5330319;26;20052;-65
2024/04/21 11:43:28;;;;;;;2.40;1.40;;;;;;;;;;5313906;26;20005;-64
2024/04/21 11:45:59;;;;;;;1.65;1.10;;;;;;;;;;5326493;26;20392;-64
2024/04/21 11:48:32;;;;;;;3.88;1.60;;;;;;;;;;5333247;26;20001;-64
2024/04/21 11:50:58;;;;;;;5.20;1.40;;;;;;;;;;5322645;26;20020;-64
2024/04/21 11:53:30;;;;;;;3.30;1.20;;;;;;;;;;5326508;26;20013;-64
2024/04/21 11:55:56;;;;;;;4.45;1.10;;;;;;;;;;5309455;26;20009;-63
2024/04/21 11:58:26;;;;;;;3.33;1.55;;;;;;;;;;5326980;26;20001;-63
2024/04/21 12:00:52;;;;;;;2.15;1.30;;;;;;;;;;5325520;26;20016;-64
2024/04/21 12:03:21;;;;;;;6.57;1.58;;;;;;;;;;5321128;26;20091;-63
2024/04/21 12:05:46;;;;;;;7.53;1.45;;;;;;;;;;5322240;26;20047;-64
2024/04/21 12:08:16;;;;;;;1.30;0.90;;;;;;;;;;5323218;26;20012;-63
2024/04/21 12:10:44;;;;;;;3.20;1.30;;;;;;;;;;5323534;26;20005;-63
2024/04/21 12:13:13;;;;;;;2.72;1.30;;;;;;;;;;5323798;26;20016;-65
2024/04/21 12:15:45;;;;;;;4.75;1.42;;;;;;;;;;5311008;26;20051;-64
2024/04/21 12:18:17;;;;;;;1.70;1.10;;;;;;;;;;5311022;26;20030;-64
2024/04/21 12:23:49;;;;;;;4.25;1.23;;;;;;;;;;744322;21;20334;-63
2024/04/21 12:26:18;;;;;;;4.30;1.27;;;;;;;;;;5318674;26;20110;-64
2024/04/21 12:28:48;;;;;;;;;;;;;;;;;;5353958;26;20016;-64
2024/04/21 12:31:14;;;;;;;2.78;1.30;;;;;;;;;;5377001;26;19925;-65
2024/04/21 12:33:42;;;;;;;3.00;1.33;;;;;;;;;;5360109;26;20016;-65
2024/04/21 12:36:08;;;;;;;3.80;1.20;;;;;;;;;;5298068;26;19997;-64
2024/04/21 12:38:36;;;;;;;2.45;1.30;;;;;;;;;;5321233;26;20001;-65
2024/04/21 12:41:07;;;;;;;14.15;4.20;;;;;;;;;;5314545;26;20021;-63
2024/04/21 12:43:40;;;;;;;4.93;1.73;;;;;;;;;;5324496;26;20087;-65
2024/04/21 12:46:06;;;;;;;7.93;2.25;;;;;;;;;;5297603;26;20001;-63
2024/04/21 12:48:36;;;;;;;4.10;1.17;;;;;;;;;;5304627;26;20016;-66
2024/04/21 12:51:03;;;;;;;6.63;1.08;;;;;;;;;;5323208;26;20001;-63
2024/04/21 12:53:31;;;;;;;2.30;1.25;;;;;;;;;;5301967;26;20041;-63
2024/04/21 12:55:57;;;;;;;1.35;0.82;;;;;;;;;;5297290;26;20001;-64
2024/04/21 12:58:27;;;;;;;5.05;1.40;;;;;;;;;;5325724;26;20004;-63
2024/04/21 13:00:55;;;;;;;2.88;1.33;;;;;;;;;;5327442;26;20023;-63
2024/04/21 13:03:26;;;;;;;2.58;1.05;;;;;;;;;;5321396;26;20005;-64
2024/04/21 13:05:52;;;;;;;2.00;1.00;;;;;;;;;;5294749;26;20005;-63
2024/04/21 13:08:20;;;;;;;2.08;1.23;;;;;;;;;;5305700;26;20009;-63
2024/04/21 13:10:46;;;;;;;1.52;0.90;;;;;;;;;;5321826;26;20013;-64
2024/04/21 13:13:15;;;;;;;1.52;1.00;;;;;;;;;;5318810;26;20008;-64
2024/04/21 13:15:43;;;;;;;2.38;0.95;;;;;;;;;;5302251;26;20000;-63
2024/04/21 13:18:14;;;;;;;;;;;;;;;;;;5324395;26;20000;-63
2024/04/21 13:20:40;;;;;;;1.25;0.85;;;;;;;;;;5319022;26;19926;-62
2024/04/21 13:23:08;;;;;;;1.88;1.10;;;;;;;;;;5319339;26;21534;-63
2024/04/21 13:25:35;;;;;;;1.95;1.20;;;;;;;;;;5293673;26;20004;-63
2024/04/21 13:28:04;;;;;;;2.05;1.10;;;;;;;;;;5319428;26;20004;-64
2024/04/21 13:30:32;;;;;;;2.45;1.15;;;;;;;;;;5373353;26;20000;-63
2024/04/21 13:33:00;;;;;;;1.85;1.08;;;;;;;;;;5343685;26;20008;-63
2024/04/21 13:35:31;;;;;;;;;;;;;;;;;;5333278;26;20536;-64
2024/04/21 13:38:04;;;;;;;2.40;1.23;;;;;;;;;;5340121;26;19926;-63
2024/04/21 13:40:30;;;;;;;1.50;0.82;;;;;;;;;;5357907;26;20027;-63
2024/04/21 13:42:58;;;;;;;1.83;0.90;;;;;;;;;;5339426;26;20008;-64
2024/04/21 13:45:24;;;;;;;3.30;1.10;;;;;;;;;;5341090;26;20008;-65
2024/04/21 13:47:53;;;;;;;1.73;1.08;;;;;;;;;;5352774;26;20019;-64
2024/04/21 13:50:19;;;;;;;2.20;1.15;;;;;;;;;;5355883;26;20000;-64
2024/04/21 13:52:53;;;;;;;1.60;1.00;;;;;;;;;;5339368;26;20033;-63
2024/04/21 13:55:19;;;;;;;2.28;0.65;;;;;;;;;;5325999;26;20036;-62
2024/04/21 13:57:48;;;;;;;6.68;1.13;;;;;;;;;;5307278;26;20110;-65
2024/04/21 14:00:14;;;;;;;6.63;1.20;;;;;;;;;;5298890;26;20017;-62
2024/04/21 14:02:42;;;;;;;1.77;0.88;;;;;;;;;;5302965;26;20001;-64
2024/04/21 14:05:11;;;;;;;1.60;0.90;;;;;;;;;;5265789;26;20078;-63
2024/04/21 14:07:39;;;;;;;;;;;;;;;;;;5316499;26;20134;-64
2024/04/21 14:10:08;;;;;;;;;;;;;;;;;;5320464;26;19926;-64
2024/04/21 14:12:38;;;;;;;3.70;1.30;;;;;;;;;;5320198;26;19926;-63
2024/04/21 14:15:12;;;;;;;3.47;1.35;;;;;;;;;;5300122;26;20012;-64
2024/04/21 14:17:40;;;;;;;4.75;1.50;;;;;;;;;;5350230;26;20141;-63
2024/04/21 14:20:09;;;;;;;1.85;1.20;;;;;;;;;;5336376;26;20005;-63
2024/04/21 14:22:42;;;;;;;1.95;1.17;;;;;;;;;;5351720;26;20015;-62
2024/04/21 14:25:18;;;;;;;8.63;1.50;;;;;;;;;;5269134;26;20024;-63
2024/04/21 14:27:47;;;;;;;3.42;1.00;;;;;;;;;;5307371;26;20097;-67
2024/04/21 14:30:13;;;;;;;2.17;1.10;;;;;;;;;;5357173;26;20000;-66
2024/04/21 14:32:43;;;;;;;2.25;1.00;;;;;;;;;;5366480;26;20019;-63
2024/04/21 14:35:09;;;;;;;1.23;0.85;;;;;;;;;;5302201;26;20004;-65
2024/04/21 14:37:42;;;;;;;1.10;0.80;;;;;;;;;;5358993;26;20018;-66
2024/04/21 14:40:11;;;;;;;1.90;1.00;;;;;;;;;;5356336;26;20075;-65
2024/04/21 14:42:39;;;;;;;1.35;0.82;;;;;;;;;;5353858;26;20023;-62
2024/04/21 14:45:10;;;;;;;1.35;0.90;;;;;;;;;;5325651;26;20029;-60
2024/04/21 14:47:43;;;;;;;2.38;1.08;;;;;;;;;;5312683;26;20124;-62
2024/04/21 14:50:17;;;;;;;0.80;0.68;;;;;;;;;;5334906;26;20004;-62
2024/04/21 14:52:46;;;;;;;5.95;1.25;;;;;;;;;;5320220;26;19997;-66
2024/04/21 14:55:18;;;;;;;2.60;1.13;;;;;;;;;;5242924;26;20083;-66
2024/04/21 14:57:44;;;;;;;2.25;1.15;;;;;;;;;;5296169;26;20016;-66